createdAt,value
2022-09-18T00:04:43.862Z,6.69
2022-09-18T00:09:47.365Z,6.59
2022-09-18T00:14:50.577Z,6.49
2022-09-18T00:19:54.942Z,6.40
2022-09-18T00:24:58.806Z,6.33
2022-09-18T00:30:01.965Z,6.29
2022-09-18T00:35:08.395Z,6.25
2022-09-18T00:40:12.253Z,6.25
2022-09-18T00:45:15.653Z,6.28
2022-09-18T00:50:27.577Z,6.28
2022-09-18T00:55:36.312Z,6.29
2022-09-18T01:00:40.185Z,6.31
2022-09-18T01:05:46.977Z,6.29
2022-09-18T01:11:15.177Z,6.25
2022-09-18T01:16:51.158Z,6.20
2022-09-18T01:22:21.874Z,6.15
2022-09-18T01:27:58.854Z,6.14
2022-09-18T01:33:32.631Z,6.12
2022-09-18T01:38:50.227Z,6.17
2022-09-18T01:44:04.517Z,6.30
2022-09-18T01:49:18.666Z,6.51
2022-09-18T01:54:27.592Z,6.76
2022-09-18T01:59:39.273Z,7.06
2022-09-18T02:04:47.510Z,7.25
2022-09-18T02:09:50.849Z,7.40
2022-09-18T02:14:57.689Z,7.56
2022-09-18T02:20:32.661Z,7.73
2022-09-18T02:25:50.928Z,7.87
2022-09-18T02:30:54.392Z,8.00
2022-09-18T02:36:03.691Z,8.09
2022-09-18T02:41:33.557Z,8.18
2022-09-18T02:47:00.484Z,8.27
2022-09-18T02:52:07.998Z,8.32
2022-09-18T02:57:17.137Z,8.35
2022-09-18T03:02:23.099Z,8.37
2022-09-18T03:07:27.199Z,8.42
2022-09-18T03:12:32.105Z,8.48
2022-09-18T03:17:35.399Z,8.53
2022-09-18T03:22:39.203Z,8.55
2022-09-18T03:27:46.613Z,8.57
2022-09-18T03:33:02.027Z,8.62
2022-09-18T03:38:06.279Z,8.66
2022-09-18T03:43:11.766Z,8.70
2022-09-18T03:48:16.084Z,8.74
2022-09-18T03:53:20.245Z,8.79
2022-09-18T03:58:31.787Z,8.82
2022-09-18T04:03:37.856Z,8.86
2022-09-18T04:08:59.837Z,8.87
2022-09-18T04:14:10.244Z,8.86
2022-09-18T04:19:13.982Z,8.86
2022-09-18T04:24:17.584Z,8.85
2022-09-18T04:29:22.062Z,8.85
2022-09-18T04:34:26.088Z,8.83
2022-09-18T04:39:29.474Z,8.83
2022-09-18T04:44:36.106Z,8.77
2022-09-18T04:49:39.384Z,8.69
2022-09-18T04:54:44.113Z,8.64
2022-09-18T04:59:47.593Z,8.64
2022-09-18T05:04:50.982Z,8.68
2022-09-18T05:10:10.801Z,8.75
2022-09-18T05:15:15.036Z,8.79
2022-09-18T05:20:22.310Z,8.83
2022-09-18T05:25:29.227Z,8.86
2022-09-18T05:30:34.337Z,8.92
2022-09-18T05:35:41.108Z,9.05
2022-09-18T05:40:45.311Z,9.18
2022-09-18T05:45:48.692Z,9.29
2022-09-18T05:51:13.207Z,9.48
2022-09-18T05:56:17.254Z,9.59
2022-09-18T06:01:23.926Z,9.71
2022-09-18T06:06:40.048Z,9.83
2022-09-18T06:11:43.332Z,9.96
2022-09-18T06:16:51.558Z,10.12
2022-09-18T06:22:00.109Z,10.25
2022-09-18T06:27:05.152Z,10.39
2022-09-18T06:32:27.005Z,10.47
2022-09-18T06:37:40.159Z,10.58
2022-09-18T06:43:02.142Z,10.78
2022-09-18T06:48:29.895Z,10.86
2022-09-18T06:53:44.493Z,10.76
2022-09-18T06:58:55.871Z,10.63
2022-09-18T07:03:59.789Z,10.42
2022-09-18T07:09:14.947Z,10.27
2022-09-18T07:14:37.555Z,10.07
2022-09-18T07:20:01.061Z,9.93
2022-09-18T07:25:17.022Z,9.87
2022-09-18T07:30:23.877Z,9.91
2022-09-18T07:35:33.858Z,10.00
2022-09-18T07:40:44.612Z,10.18
2022-09-18T07:45:59.645Z,10.39
2022-09-18T07:51:10.590Z,10.50
2022-09-18T07:56:26.599Z,10.55
2022-09-18T08:01:35.451Z,10.75
2022-09-18T08:06:48.458Z,10.85
2022-09-18T08:12:06.113Z,10.97
2022-09-18T08:17:46.365Z,11.28
2022-09-18T08:23:16.563Z,11.65
2022-09-18T08:28:45.281Z,11.86
2022-09-18T08:33:56.499Z,11.66
2022-09-18T08:39:05.432Z,11.40
2022-09-18T08:44:32.635Z,11.14
2022-09-18T08:49:50.980Z,10.94
2022-09-18T08:55:14.530Z,11.03
2022-09-18T09:01:01.240Z,10.94
2022-09-18T09:06:35.559Z,10.76
2022-09-18T09:11:41.454Z,10.65
2022-09-18T09:16:52.817Z,10.67
2022-09-18T09:22:29.016Z,10.61
2022-09-18T09:27:41.819Z,10.50
2022-09-18T09:33:04.641Z,10.51
2022-09-18T09:38:42.015Z,10.35
2022-09-18T09:44:09.759Z,10.37
2022-09-18T09:49:25.923Z,10.60
2022-09-18T09:54:37.406Z,10.75
2022-09-18T10:00:06.383Z,10.56
2022-09-18T10:06:05.062Z,10.37
2022-09-18T10:11:12.776Z,10.30
2022-09-18T10:16:23.599Z,10.33
2022-09-18T10:21:36.279Z,10.44
2022-09-18T10:27:01.013Z,10.53
2022-09-18T10:32:12.008Z,10.61
2022-09-18T10:37:35.420Z,10.72
2022-09-18T10:42:46.566Z,10.68
2022-09-18T10:48:27.679Z,10.54
2022-09-18T10:53:34.324Z,10.63
2022-09-18T10:59:37.645Z,10.81
2022-09-18T11:04:50.371Z,10.94
2022-09-18T11:10:20.800Z,11.09
2022-09-18T11:16:07.591Z,11.30
2022-09-18T11:21:14.156Z,11.48
2022-09-18T11:26:32.876Z,11.34
2022-09-18T11:31:46.318Z,11.53
2022-09-18T11:37:40.173Z,11.71
2022-09-18T11:42:52.057Z,12.12
2022-09-18T11:48:25.010Z,12.48
2022-09-18T11:53:44.068Z,12.53
2022-09-18T11:59:05.663Z,12.33
2022-09-18T12:04:29.011Z,12.28
2022-09-18T12:09:41.603Z,12.26
2022-09-18T12:15:11.051Z,12.32
2022-09-18T12:20:33.072Z,12.47
2022-09-18T12:25:56.573Z,12.64
2022-09-18T12:31:55.887Z,12.75
2022-09-18T12:37:45.813Z,12.78
2022-09-18T12:43:03.866Z,13.06
2022-09-18T12:48:40.678Z,13.41
2022-09-18T12:54:11.502Z,13.92
2022-09-18T12:59:39.464Z,14.00
2022-09-18T13:04:50.634Z,13.60
2022-09-18T13:09:59.666Z,13.50
2022-09-18T13:15:13.696Z,13.88
2022-09-18T13:20:20.260Z,14.28
2022-09-18T13:25:28.622Z,14.90
2022-09-18T13:30:32.239Z,14.83
2022-09-18T13:35:39.849Z,14.55
2022-09-18T13:41:04.825Z,14.18
2022-09-18T13:46:10.609Z,13.93
2022-09-18T13:51:31.528Z,13.61
2022-09-18T13:57:10.596Z,13.20
2022-09-18T14:02:27.334Z,12.97
2022-09-18T14:07:37.891Z,13.12
2022-09-18T14:13:22.601Z,13.35
2022-09-18T14:18:48.497Z,13.38
2022-09-18T14:24:26.735Z,13.47
2022-09-18T14:29:36.853Z,13.54
2022-09-18T14:34:42.974Z,13.53
2022-09-18T14:39:47.083Z,13.60
2022-09-18T14:45:11.296Z,13.75
2022-09-18T14:50:46.963Z,13.84
2022-09-18T14:56:01.824Z,13.96
2022-09-18T15:01:15.237Z,14.12
2022-09-18T15:06:27.168Z,14.38
2022-09-18T15:11:47.010Z,14.29
2022-09-18T15:17:00.830Z,14.03
2022-09-18T15:22:05.970Z,14.03
2022-09-18T15:27:14.994Z,14.15
2022-09-18T15:32:23.869Z,13.87
2022-09-18T15:37:34.856Z,13.43
2022-09-18T15:42:41.483Z,13.05
2022-09-18T15:47:45.312Z,12.70
2022-09-18T15:53:02.010Z,12.43
2022-09-18T15:58:25.238Z,11.91
2022-09-18T16:03:30.623Z,11.43
2022-09-18T16:09:02.681Z,11.35
2022-09-18T16:14:40.675Z,11.37
2022-09-18T16:19:44.754Z,11.34
2022-09-18T16:24:48.610Z,11.13
2022-09-18T16:29:52.182Z,10.92
2022-09-18T16:34:55.688Z,10.63
2022-09-18T16:40:01.541Z,10.41
2022-09-18T16:45:06.459Z,10.16
2022-09-18T16:50:10.094Z,9.93
2022-09-18T16:55:16.498Z,9.71
2022-09-18T17:00:26.404Z,9.49
2022-09-18T17:05:30.418Z,9.31
2022-09-18T17:10:35.892Z,9.19
2022-09-18T17:15:39.279Z,9.11
2022-09-18T17:20:42.659Z,8.99
2022-09-18T17:25:49.662Z,8.90
2022-09-18T17:30:53.775Z,8.84
2022-09-18T17:35:57.214Z,8.76
2022-09-18T17:41:03.388Z,8.69
2022-09-18T17:46:13.296Z,8.54
2022-09-18T17:51:20.586Z,8.40
2022-09-18T17:56:30.315Z,8.20
2022-09-18T18:01:46.221Z,7.99
2022-09-18T18:06:52.802Z,7.84
2022-09-18T18:11:56.834Z,7.77
2022-09-18T18:17:11.139Z,7.73
2022-09-18T18:22:24.078Z,7.75
2022-09-18T18:27:29.234Z,7.88
2022-09-18T18:32:38.392Z,8.05
2022-09-18T18:37:44.988Z,8.17
2022-09-18T18:42:57.077Z,8.27
2022-09-18T18:48:09.833Z,8.37
2022-09-18T18:53:23.413Z,8.46
2022-09-18T18:58:36.868Z,8.56
2022-09-18T19:04:20.844Z,8.66
2022-09-18T19:09:42.712Z,8.77
2022-09-18T19:14:57.879Z,8.87
2022-09-18T19:20:13.673Z,8.96
2022-09-18T19:25:46.470Z,9.02
2022-09-18T19:31:29.065Z,9.07
2022-09-18T19:36:40.410Z,9.09
2022-09-18T19:41:51.822Z,9.12
2022-09-18T19:46:56.353Z,9.14
2022-09-18T19:52:31.348Z,9.13
2022-09-18T19:57:35.759Z,9.10
2022-09-18T20:02:39.276Z,9.05
2022-09-18T20:07:45.070Z,9.00
2022-09-18T20:12:49.735Z,8.95
2022-09-18T20:17:56.911Z,8.92
2022-09-18T20:23:02.339Z,8.88
2022-09-18T20:28:06.111Z,8.82
2022-09-18T20:33:09.457Z,8.80
2022-09-18T20:38:12.999Z,8.76
2022-09-18T20:43:21.772Z,8.72
2022-09-18T20:48:26.979Z,8.68
2022-09-18T20:53:43.126Z,8.64
2022-09-18T20:58:51.868Z,8.60
2022-09-18T21:04:01.131Z,8.55
2022-09-18T21:09:31.073Z,8.49
2022-09-18T21:14:34.325Z,8.44
2022-09-18T21:19:39.101Z,8.39
2022-09-18T21:24:45.017Z,8.33
2022-09-18T21:30:00.464Z,8.29
2022-09-18T21:35:28.471Z,8.23
2022-09-18T21:40:36.236Z,8.16
2022-09-18T21:45:43.290Z,8.12
2022-09-18T21:50:52.423Z,8.08
2022-09-18T21:56:15.595Z,8.05
2022-09-18T22:01:21.484Z,8.01
2022-09-18T22:06:34.825Z,7.96
2022-09-18T22:11:39.011Z,7.94
2022-09-18T22:16:47.370Z,7.90
2022-09-18T22:21:56.247Z,7.82
2022-09-18T22:27:11.086Z,7.79
2022-09-18T22:32:15.808Z,7.71
2022-09-18T22:37:20.592Z,7.65
2022-09-18T22:42:26.339Z,7.62
2022-09-18T22:47:30.845Z,7.63
2022-09-18T22:52:35.299Z,7.66
2022-09-18T22:57:39.018Z,7.70
2022-09-18T23:02:43.161Z,7.69
2022-09-18T23:07:47.218Z,7.67
2022-09-18T23:12:51.195Z,7.63
2022-09-18T23:17:55.761Z,7.56
2022-09-18T23:22:59.756Z,7.48
2022-09-18T23:28:03.053Z,7.45
2022-09-18T23:33:06.528Z,7.39
2022-09-18T23:38:09.774Z,7.31
2022-09-18T23:43:12.991Z,7.24
2022-09-18T23:48:17.104Z,7.21
2022-09-18T23:53:22.958Z,7.13
2022-09-18T23:58:26.119Z,7.06
